Time;durP1;ratioP1;P1;durP2;ratioP2;P2;SDS_P1;SDS_P2;PMS_P1;PMS_P2;Temp;Humidity;BMP_temperature;BMP_pressure;BME280_temperature;BME280_humidity;BME280_pressure;Samples;Min_cycle;Max_cycle;Signal;HPM_P1;HPM_P2
2023/01/31 00:01:14;;;;;;;20.50;3.65;;;;;;;-143.48;85.72;118439.88;5095299;28;20020;-28
2023/01/31 00:03:40;;;;;;;23.63;3.28;;;;;;;-143.48;85.54;118439.88;5094546;28;20119;-28
2023/01/31 00:06:27;;;;;;;23.30;4.00;;;;;;;-143.48;85.57;118439.88;5094215;28;20020;-28
2023/01/31 00:08:53;;;;;;;25.30;3.30;;;;;;;-143.48;85.62;118439.88;5093378;28;20020;-28
2023/01/31 00:11:21;;;;;;;35.38;4.13;;;;;;;-143.48;85.96;118439.88;5093207;28;20030;-28
2023/01/31 00:13:48;;;;;;;13.80;3.00;;;;;;;-143.48;86.30;118439.88;5092607;28;20032;-28
2023/01/31 00:16:15;;;;;;;16.17;3.08;;;;;;;-143.48;85.99;118439.88;5092503;28;20374;-28
2023/01/31 00:18:40;;;;;;;25.15;3.67;;;;;;;-143.48;85.66;118439.88;5092446;28;20055;-28
2023/01/31 00:21:13;;;;;;;15.55;2.70;;;;;;;-143.48;85.67;118439.88;5092525;28;20020;-28
2023/01/31 00:23:41;;;;;;;23.23;3.53;;;;;;;-143.48;86.23;118439.88;5092479;28;20084;-28
2023/01/31 00:26:30;;;;;;;26.25;3.13;;;;;;;-143.48;86.22;118439.88;5092450;28;20028;-27
2023/01/31 00:28:57;;;;;;;26.00;2.80;;;;;;;-143.48;85.75;118439.88;5080265;28;20040;-28
2023/01/31 00:31:25;;;;;;;23.27;2.50;;;;;;;-143.48;85.97;118439.88;5092545;28;20056;-28
2023/01/31 00:33:52;;;;;;;16.92;2.47;;;;;;;-143.48;85.36;118439.88;5092901;28;20093;-27
2023/01/31 00:36:22;;;;;;;20.95;3.15;;;;;;;-143.48;86.12;118439.88;5092904;28;20112;-28
2023/01/31 00:38:55;;;;;;;16.20;2.38;;;;;;;-143.48;86.16;118439.88;5094123;28;20331;-28
2023/01/31 00:41:22;;;;;;;23.75;2.97;;;;;;;-143.48;85.90;118439.88;5094288;28;20028;-28
2023/01/31 00:43:47;;;;;;;32.95;2.67;;;;;;;-143.48;86.27;118439.88;5094208;28;20114;-28
2023/01/31 00:46:13;;;;;;;22.90;2.22;;;;;;;-143.48;86.19;118439.88;5094238;28;20043;-28
2023/01/31 00:48:38;;;;;;;15.93;2.38;;;;;;;-143.48;85.99;118439.88;5094728;28;20378;-28
2023/01/31 00:51:04;;;;;;;20.85;3.03;;;;;;;-143.48;85.79;118439.88;5075820;28;20106;-28
2023/01/31 00:53:30;;;;;;;24.45;2.53;;;;;;;-143.48;85.78;118439.88;5094027;28;20420;-28
2023/01/31 00:56:02;;;;;;;16.10;2.70;;;;;;;-143.48;86.59;118439.88;5093078;28;20053;-27
2023/01/31 00:58:27;;;;;;;21.90;2.23;;;;;;;-143.48;86.09;118439.88;5094575;28;20100;-28
2023/01/31 01:00:53;;;;;;;17.67;2.63;;;;;;;-143.48;85.83;118439.88;5094393;28;20024;-28
2023/01/31 01:03:18;;;;;;;23.48;3.05;;;;;;;-143.48;86.22;118439.88;5094644;28;20032;-28
2023/01/31 01:05:43;;;;;;;24.23;2.65;;;;;;;-143.48;86.32;118439.88;5093854;28;20382;-28
2023/01/31 01:08:09;;;;;;;22.55;2.72;;;;;;;-143.48;86.37;118439.88;5094407;28;20036;-28
2023/01/31 01:10:34;;;;;;;25.50;3.03;;;;;;;-143.48;86.31;118439.88;5094086;28;20382;-27
2023/01/31 01:13:00;;;;;;;18.92;2.47;;;;;;;-143.48;86.48;118439.88;5093614;28;20016;-28
2023/01/31 01:15:26;;;;;;;22.80;2.67;;;;;;;-143.48;85.78;118439.88;5093914;28;20024;-28
2023/01/31 01:17:51;;;;;;;17.63;2.70;;;;;;;-143.48;85.90;118439.88;5093951;28;20047;-27
2023/01/31 01:20:17;;;;;;;15.45;2.85;;;;;;;-143.48;85.99;118439.88;5094478;28;20020;-28
2023/01/31 01:22:42;;;;;;;20.27;3.65;;;;;;;-143.48;86.23;118439.88;5094026;28;20020;-27
2023/01/31 01:25:08;;;;;;;18.85;2.50;;;;;;;-143.48;86.54;118439.88;5093871;28;20031;-27
2023/01/31 01:27:34;;;;;;;17.63;2.72;;;;;;;-143.48;86.32;118439.88;5093838;28;20024;-28
2023/01/31 01:30:00;;;;;;;17.83;2.70;;;;;;;-143.48;86.55;118439.88;5093790;28;20363;-27
2023/01/31 01:32:26;;;;;;;21.38;3.08;;;;;;;-143.48;86.54;118439.88;5093548;28;20031;-28
2023/01/31 01:34:52;;;;;;;12.07;2.45;;;;;;;-143.48;86.33;118439.88;5093560;28;20024;-28
2023/01/31 01:37:20;;;;;;;19.38;2.67;;;;;;;-143.48;86.25;118439.88;5093452;28;20111;-28
2023/01/31 01:39:49;;;;;;;21.73;3.45;;;;;;;-143.48;86.31;118439.88;5093436;28;20024;-28
2023/01/31 01:42:16;;;;;;;15.82;3.10;;;;;;;-143.48;86.13;118439.88;5093451;28;20040;-28
2023/01/31 01:44:46;;;;;;;15.93;3.00;;;;;;;-143.48;86.22;118439.88;5093226;28;20121;-28
2023/01/31 01:47:49;;;;;;;22.90;3.20;;;;;;;-143.48;86.17;118439.88;5093619;28;20039;-28
2023/01/31 01:50:26;;;;;;;21.70;2.75;;;;;;;-143.48;85.74;118439.88;5075158;28;20024;-27
2023/01/31 01:53:19;;;;;;;22.27;3.47;;;;;;;-143.48;85.72;118439.88;5093302;28;20052;-27
2023/01/31 01:55:48;;;;;;;24.38;3.03;;;;;;;-143.48;85.52;118439.88;5084262;28;20386;-28
2023/01/31 01:58:18;;;;;;;17.42;2.78;;;;;;;-143.48;85.70;118439.88;5093334;28;20390;-28
2023/01/31 02:00:45;;;;;;;17.42;2.67;;;;;;;-143.48;85.65;118439.88;5093496;28;20028;-27
2023/01/31 02:03:11;;;;;;;17.50;2.70;;;;;;;-143.48;85.21;118439.88;5093255;28;20031;-27
2023/01/31 02:05:42;;;;;;;15.82;2.50;;;;;;;-143.48;85.56;118439.88;5093661;28;20055;-28
2023/01/31 02:08:09;;;;;;;15.57;2.80;;;;;;;-143.48;85.44;118439.88;5097674;28;20019;-27
2023/01/31 02:11:12;;;;;;;15.15;2.95;;;;;;;-143.48;84.92;118439.88;5097465;28;20023;-28
2023/01/31 02:13:40;;;;;;;19.60;3.63;;;;;;;-143.48;85.15;118439.88;5055917;28;20042;-28
2023/01/31 02:16:05;;;;;;;18.55;3.13;;;;;;;-143.48;85.29;118439.88;5097109;28;20057;-28
2023/01/31 02:18:31;;;;;;;28.48;3.90;;;;;;;-143.48;85.94;118439.88;5096956;28;20473;-27
2023/01/31 02:21:37;;;;;;;17.67;3.65;;;;;;;-143.48;86.27;118439.88;5096978;28;20028;-28
2023/01/31 02:24:23;;;;;;;19.52;3.20;;;;;;;-143.48;86.19;118439.88;5096168;28;20032;-28
2023/01/31 02:27:22;;;;;;;22.92;3.38;;;;;;;-143.48;86.34;118439.88;5097209;28;20032;-28
2023/01/31 02:30:06;;;;;;;15.27;2.88;;;;;;;-143.48;87.07;118439.88;5097332;28;20020;-28
2023/01/31 02:32:58;;;;;;;27.02;3.28;;;;;;;-143.48;86.87;118439.88;5097320;28;20032;-27
2023/01/31 02:35:30;;;;;;;;;;;;;;;-143.48;87.77;118439.88;5097356;28;20131;-28
2023/01/31 02:38:37;;;;;;;24.77;3.03;;;;;;;-143.48;88.50;118439.88;5096684;28;19961;-27
2023/01/31 02:41:23;;;;;;;13.45;2.97;;;;;;;-143.48;89.06;118439.88;5096527;28;20070;-27
2023/01/31 02:47:04;;;;;;;21.52;3.30;;;;;;;-143.48;90.06;118439.88;5096522;28;20402;-35
2023/01/31 02:49:39;;;;;;;25.33;4.20;;;;;;;-143.48;89.70;118439.88;5096783;28;20050;-36
2023/01/31 02:52:30;;;;;;;21.88;3.42;;;;;;;-143.48;90.05;118439.88;5096348;28;20077;-36
2023/01/31 02:57:59;;;;;;;26.85;3.00;;;;;;;-143.48;90.22;118439.88;5096679;28;20039;-37
2023/01/31 03:00:26;;;;;;;32.03;3.78;;;;;;;-143.48;90.48;118439.88;5096226;28;20043;-34
2023/01/31 03:02:51;;;;;;;29.95;3.83;;;;;;;-143.48;90.92;118439.88;5096410;28;20024;-34
2023/01/31 03:05:18;;;;;;;27.90;4.18;;;;;;;-143.48;90.43;118439.88;5097000;28;20016;-36
2023/01/31 03:07:49;;;;;;;25.23;4.10;;;;;;;-143.48;91.31;118439.88;5096663;28;20145;-36
2023/01/31 03:10:26;;;;;;;28.92;4.45;;;;;;;-143.48;91.23;118439.88;5096346;28;20133;-34
2023/01/31 03:13:07;;;;;;;29.13;5.05;;;;;;;-143.48;91.96;118439.88;5095895;28;20084;-34
2023/01/31 03:18:46;;;;;;;26.48;4.57;;;;;;;-143.48;92.26;118439.88;5095411;28;20127;-34
2023/01/31 03:21:16;;;;;;;19.38;4.85;;;;;;;-143.48;92.20;118439.88;5095910;28;20489;-35
2023/01/31 03:23:48;;;;;;;25.33;5.38;;;;;;;-143.48;92.38;118439.88;5095968;28;20364;-34
2023/01/31 03:26:15;;;;;;;27.83;4.55;;;;;;;-143.48;92.40;118439.88;5095799;28;20024;-39
2023/01/31 03:28:42;;;;;;;19.70;3.88;;;;;;;-143.48;92.35;118439.88;5096307;28;20052;-35
2023/01/31 03:31:19;;;;;;;23.70;4.07;;;;;;;-143.48;92.39;118439.88;5095853;28;20031;-35
2023/01/31 03:33:49;;;;;;;24.38;4.50;;;;;;;-143.48;92.65;118439.88;5095856;28;20077;-35
2023/01/31 03:36:36;;;;;;;26.48;4.80;;;;;;;-143.48;92.36;118439.88;5095454;28;20111;-36
2023/01/31 03:39:23;;;;;;;29.73;5.10;;;;;;;-143.48;92.47;118439.88;5095490;28;20024;-35
2023/01/31 03:41:57;;;;;;;34.00;5.57;;;;;;;-143.48;92.96;118439.88;5096006;28;20024;-35
2023/01/31 03:44:44;;;;;;;23.10;4.15;;;;;;;-143.48;93.22;118439.88;5077266;28;20035;-34
2023/01/31 03:47:32;;;;;;;24.60;4.75;;;;;;;-143.48;93.76;118439.88;5095104;28;20048;-34
2023/01/31 03:50:02;;;;;;;22.75;4.32;;;;;;;-143.48;93.87;118439.88;5095302;28;20169;-34
2023/01/31 03:52:36;;;;;;;28.80;5.55;;;;;;;-143.48;93.62;118439.88;5095791;28;20071;-34
2023/01/31 03:55:13;;;;;;;20.70;4.55;;;;;;;-143.48;93.88;118439.88;5095405;28;20016;-34
2023/01/31 03:57:41;;;;;;;40.63;6.28;;;;;;;-143.48;93.85;118439.88;5095313;28;20455;-37
2023/01/31 04:00:12;;;;;;;22.50;4.55;;;;;;;-143.48;93.93;118439.88;5095383;28;20016;-36
2023/01/31 04:02:40;;;;;;;25.80;5.38;;;;;;;-143.48;93.75;118439.88;5095029;28;20015;-35
2023/01/31 04:05:09;;;;;;;28.98;5.03;;;;;;;-143.48;93.75;118439.88;5095175;28;20016;-37
2023/01/31 04:07:35;;;;;;;34.20;5.72;;;;;;;-143.48;93.82;118439.88;5094875;28;20035;-34
2023/01/31 04:10:04;;;;;;;31.05;5.60;;;;;;;-143.48;94.38;118439.88;5094966;28;20348;-34
2023/01/31 04:12:33;;;;;;;23.63;5.10;;;;;;;-143.48;94.28;118439.88;5077523;28;20120;-36
2023/01/31 04:14:58;;;;;;;28.10;5.68;;;;;;;-143.48;94.86;118439.88;5095018;28;20070;-34
2023/01/31 04:17:24;;;;;;;28.80;6.20;;;;;;;-143.48;94.79;118439.88;5094805;28;20540;-35
2023/01/31 04:19:49;;;;;;;30.23;5.78;;;;;;;-143.48;94.57;118439.88;5094662;28;20028;-35
2023/01/31 04:22:14;;;;;;;27.35;5.88;;;;;;;-143.48;94.42;118439.88;5095301;28;20082;-36
2023/01/31 04:24:40;;;;;;;30.17;6.00;;;;;;;-143.48;94.38;118439.88;5094935;28;20016;-35
2023/01/31 04:27:05;;;;;;;27.40;5.70;;;;;;;-143.48;94.08;118439.88;5094870;28;20085;-34
2023/01/31 04:29:30;;;;;;;36.20;5.80;;;;;;;-143.48;94.15;118439.88;5094437;28;20500;-35
2023/01/31 04:31:55;;;;;;;27.55;5.47;;;;;;;-143.48;93.78;118439.88;5094655;28;20019;-35
2023/01/31 04:34:21;;;;;;;29.98;6.25;;;;;;;-143.48;94.05;118439.88;5094710;28;20080;-34
2023/01/31 04:36:46;;;;;;;24.80;5.18;;;;;;;-143.48;93.98;118439.88;5094448;28;20027;-34
2023/01/31 04:39:12;;;;;;;31.27;5.88;;;;;;;-143.48;93.80;118439.88;5094660;28;20051;-35
2023/01/31 04:41:37;;;;;;;25.50;5.38;;;;;;;-143.48;93.21;118439.88;5094489;28;20162;-34
2023/01/31 04:44:03;;;;;;;32.90;6.53;;;;;;;-143.48;93.48;118439.88;5094544;28;20051;-35
2023/01/31 04:46:28;;;;;;;34.70;6.10;;;;;;;-143.48;93.18;118439.88;5076199;28;20048;-34
2023/01/31 04:48:53;;;;;;;29.08;5.25;;;;;;;-143.48;93.28;118439.88;5094513;28;20363;-34
2023/01/31 04:51:19;;;;;;;23.02;5.95;;;;;;;-143.48;93.01;118439.88;5094136;28;20520;-35
2023/01/31 04:53:44;;;;;;;27.95;5.88;;;;;;;-143.48;92.99;118439.88;5094445;28;20022;-36
2023/01/31 04:56:10;;;;;;;32.47;5.72;;;;;;;-143.48;93.54;118439.88;5094006;28;20382;-36
2023/01/31 04:58:35;;;;;;;28.60;5.88;;;;;;;-143.48;93.07;118439.88;5094255;28;20080;-34
2023/01/31 05:01:00;;;;;;;28.35;6.45;;;;;;;-143.48;93.23;118439.88;5094173;28;20020;-35
2023/01/31 05:03:26;;;;;;;27.63;5.80;;;;;;;-143.48;93.34;118439.88;5094119;28;20031;-34
2023/01/31 05:05:51;;;;;;;26.80;5.57;;;;;;;-143.48;93.22;118439.88;5093812;28;20016;-35
2023/01/31 05:08:17;;;;;;;24.02;5.70;;;;;;;-143.48;93.10;118439.88;5094168;28;20031;-34
2023/01/31 05:10:42;;;;;;;28.75;6.10;;;;;;;-143.48;93.07;118439.88;5093787;28;20020;-36
2023/01/31 05:13:09;;;;;;;27.25;5.22;;;;;;;-143.48;93.43;118439.88;5057238;28;20031;-34
2023/01/31 05:15:34;;;;;;;26.75;5.28;;;;;;;-143.48;93.19;118439.88;5092839;28;20039;-36
2023/01/31 05:18:02;;;;;;;32.85;6.30;;;;;;;-143.48;93.12;118439.88;5094071;28;20031;-34
2023/01/31 05:20:35;;;;;;;34.38;5.68;;;;;;;-143.48;93.26;118439.88;5094306;28;20028;-34
2023/01/31 05:23:00;;;;;;;28.20;5.72;;;;;;;-143.48;92.85;118439.88;5092548;28;20470;-34
2023/01/31 05:25:25;;;;;;;26.85;5.75;;;;;;;-143.48;92.78;118439.88;5091638;28;20182;-35
2023/01/31 05:27:52;;;;;;;24.33;5.10;;;;;;;-143.48;92.27;118439.88;5091683;28;20032;-35
2023/01/31 05:30:18;;;;;;;34.30;5.97;;;;;;;-143.48;92.52;118439.88;5091914;28;20051;-35
2023/01/31 05:32:44;;;;;;;30.48;5.88;;;;;;;-143.48;92.58;118439.88;5091746;28;20435;-34
2023/01/31 05:35:11;;;;;;;29.05;5.72;;;;;;;-143.48;92.58;118439.88;5091599;28;20032;-35
2023/01/31 05:37:37;;;;;;;14.63;4.53;;;;;;;-143.48;92.42;118439.88;5092633;28;20492;-34
2023/01/31 05:40:02;;;;;;;26.00;5.45;;;;;;;-143.48;92.73;118439.88;5094006;28;20028;-34
2023/01/31 05:42:27;;;;;;;36.65;5.93;;;;;;;-143.48;92.32;118439.88;5100133;28;20383;-34
2023/01/31 05:44:53;;;;;;;22.58;6.00;;;;;;;-143.48;92.65;118439.88;5100250;28;20016;-34
2023/01/31 05:47:18;;;;;;;25.13;5.30;;;;;;;-143.48;93.03;118439.88;5099860;28;20031;-34
2023/01/31 05:49:43;;;;;;;31.25;6.07;;;;;;;-143.48;93.02;118439.88;5100133;28;20031;-35
2023/01/31 05:52:09;;;;;;;29.65;6.13;;;;;;;-143.48;93.17;118439.88;5099926;28;20083;-35
2023/01/31 05:54:34;;;;;;;27.95;5.57;;;;;;;-143.48;93.32;118439.88;5099857;28;20028;-36
2023/01/31 05:56:59;;;;;;;30.60;6.28;;;;;;;-143.48;93.45;118439.88;5099732;28;20102;-35
2023/01/31 05:59:25;;;;;;;36.17;6.40;;;;;;;-143.48;93.63;118439.88;5100063;28;20115;-35
2023/01/31 06:01:50;;;;;;;29.20;5.95;;;;;;;-143.48;93.43;118439.88;5099831;28;20388;-34
2023/01/31 06:04:16;;;;;;;27.63;5.88;;;;;;;-143.48;94.31;118439.88;5100110;28;20028;-34
2023/01/31 06:06:41;;;;;;;32.30;6.88;;;;;;;-143.48;94.10;118439.88;5081627;28;20027;-33
2023/01/31 06:09:07;;;;;;;31.67;5.97;;;;;;;-143.48;94.07;118439.88;5099675;28;20107;-35
2023/01/31 06:11:32;;;;;;;30.83;6.28;;;;;;;-143.48;94.32;118439.88;5099947;28;20108;-34
2023/01/31 06:13:58;;;;;;;32.45;6.32;;;;;;;-143.48;94.49;118439.88;5099697;28;20016;-35
2023/01/31 06:16:24;;;;;;;33.22;6.60;;;;;;;-143.48;94.65;118439.88;5099726;28;20028;-35
2023/01/31 06:18:49;;;;;;;29.02;5.47;;;;;;;-143.48;94.62;118439.88;5100176;28;20027;-34
2023/01/31 06:21:15;;;;;;;24.92;6.10;;;;;;;-143.48;94.99;118439.88;5099657;28;20028;-34
2023/01/31 06:23:44;;;;;;;25.83;6.47;;;;;;;-143.48;95.09;118439.88;5099473;28;20458;-34
2023/01/31 06:26:11;;;;;;;33.60;6.28;;;;;;;-143.48;95.18;118439.88;5099506;28;20024;-34
2023/01/31 06:28:36;;;;;;;38.28;6.47;;;;;;;-143.48;95.03;118439.88;5081391;28;20020;-37
2023/01/31 06:31:06;;;;;;;22.58;6.22;;;;;;;-143.48;95.10;118439.88;5100414;28;20031;-34
2023/01/31 06:33:31;;;;;;;28.83;5.72;;;;;;;-143.48;94.37;118439.88;5099862;28;20137;-36
2023/01/31 06:36:00;;;;;;;27.20;5.88;;;;;;;-143.48;94.91;118439.88;5099497;28;20055;-35
2023/01/31 06:38:26;;;;;;;30.25;7.45;;;;;;;-143.48;94.74;118439.88;5099757;28;20435;-35
2023/01/31 06:40:52;;;;;;;22.45;5.60;;;;;;;-143.48;94.58;118439.88;5099368;28;20016;-35
2023/01/31 06:43:17;;;;;;;30.75;6.30;;;;;;;-143.48;94.39;118439.88;5099321;28;20375;-35
2023/01/31 06:45:43;;;;;;;29.92;5.10;;;;;;;-143.48;94.13;118439.88;5099433;28;20052;-34
2023/01/31 06:48:09;;;;;;;36.05;6.43;;;;;;;-143.48;94.16;118439.88;5081237;28;20016;-34
2023/01/31 06:50:34;;;;;;;31.95;5.90;;;;;;;-143.48;94.17;118439.88;5099888;28;20032;-35
2023/01/31 06:53:00;;;;;;;28.75;5.75;;;;;;;-143.48;94.10;118439.88;5096213;28;20421;-35
2023/01/31 06:55:25;;;;;;;29.80;5.60;;;;;;;-143.48;93.76;118439.88;5096282;28;20016;-37
2023/01/31 06:57:50;;;;;;;24.27;5.43;;;;;;;-143.48;93.52;118439.88;5096035;28;20050;-35
2023/01/31 07:00:19;;;;;;;26.05;4.57;;;;;;;-143.48;93.32;118439.88;5096317;28;20050;-37
2023/01/31 07:02:45;;;;;;;27.80;5.45;;;;;;;-143.48;93.42;118439.88;5096266;28;20027;-34
2023/01/31 07:05:11;;;;;;;27.80;4.78;;;;;;;-143.48;93.09;118439.88;5096159;28;20465;-35
2023/01/31 07:07:36;;;;;;;22.85;5.32;;;;;;;-143.48;92.89;118439.88;5095882;28;20494;-34
2023/01/31 07:10:01;;;;;;;31.45;5.50;;;;;;;-143.48;92.55;118439.88;5096150;28;20493;-35
2023/01/31 07:12:27;;;;;;;40.88;14.35;;;;;;;-143.48;92.28;118439.88;5095746;28;20106;-34
2023/01/31 07:14:52;;;;;;;29.15;5.90;;;;;;;-143.48;91.71;118439.88;5077383;28;20024;-36
2023/01/31 07:17:19;;;;;;;14.93;4.25;;;;;;;-143.48;91.82;118439.88;5095970;28;20019;-36
2023/01/31 07:19:45;;;;;;;26.35;4.70;;;;;;;-143.48;91.33;118439.88;5095981;28;20024;-36
2023/01/31 07:22:10;;;;;;;24.25;4.50;;;;;;;-143.48;91.31;118439.88;5095186;28;20023;-36
2023/01/31 07:24:36;;;;;;;24.77;5.13;;;;;;;-143.48;91.69;118439.88;5095633;28;20062;-35
2023/01/31 07:27:01;;;;;;;31.73;4.85;;;;;;;-143.48;91.02;118439.88;5095587;28;20031;-35
2023/01/31 07:29:26;;;;;;;26.25;3.55;;;;;;;-143.48;91.75;118439.88;5095918;28;20348;-33
2023/01/31 07:31:53;;;;;;;20.67;3.90;;;;;;;-143.48;92.32;118439.88;5095277;28;20073;-35
2023/01/31 07:34:21;;;;;;;19.40;3.58;;;;;;;-143.48;91.94;118439.88;5094983;28;20077;-34
2023/01/31 07:36:47;;;;;;;22.58;6.78;;;;;;;-143.48;92.21;118439.88;5075552;28;20034;-35
2023/01/31 07:39:12;;;;;;;22.90;4.07;;;;;;;-143.48;92.00;118439.88;5092846;28;20024;-35
2023/01/31 07:41:37;;;;;;;23.70;4.05;;;;;;;-143.48;91.96;118439.88;5093102;28;20028;-35
2023/01/31 07:44:03;;;;;;;22.40;3.50;;;;;;;-143.48;92.08;118439.88;5092790;28;20032;-34
2023/01/31 07:46:28;;;;;;;22.23;3.40;;;;;;;-143.48;91.76;118439.88;5093307;28;20043;-34
2023/01/31 07:48:54;;;;;;;24.75;3.22;;;;;;;-143.48;91.98;118439.88;5093349;28;20039;-37
2023/01/31 07:51:19;;;;;;;24.42;4.25;;;;;;;-143.48;91.72;118439.88;5075153;28;20359;-35
2023/01/31 07:53:44;;;;;;;21.17;3.25;;;;;;;-143.48;92.14;118439.88;5095449;28;20051;-34
2023/01/31 07:56:13;;;;;;;20.05;2.92;;;;;;;-143.48;91.60;118439.88;5094991;28;20024;-35
2023/01/31 07:58:40;;;;;;;18.40;3.20;;;;;;;-143.48;91.41;118439.88;5093822;28;20107;-35
2023/01/31 08:03:50;;;;;;;20.20;3.25;;;;;;;-143.48;90.88;118439.88;5093751;28;20046;-35
2023/01/31 08:06:15;;;;;;;17.80;3.13;;;;;;;-143.48;90.58;118439.88;5094123;28;20362;-35
2023/01/31 08:08:42;;;;;;;24.45;3.95;;;;;;;-143.48;90.23;118439.88;5094725;28;20028;-34
2023/01/31 08:11:07;;;;;;;16.05;2.65;;;;;;;-143.48;89.90;118439.88;5092730;28;20024;-35
2023/01/31 08:13:34;;;;;;;20.80;2.67;;;;;;;-143.48;89.94;118439.88;5092508;28;20053;-36
2023/01/31 08:16:00;;;;;;;21.75;3.33;;;;;;;-143.48;89.85;118439.88;5092697;28;20383;-35
2023/01/31 08:18:26;;;;;;;20.33;2.65;;;;;;;-143.48;90.01;118439.88;5092654;28;20054;-36
2023/01/31 08:20:51;;;;;;;13.05;2.38;;;;;;;-143.48;89.91;118439.88;5092503;28;20102;-35
2023/01/31 08:23:16;;;;;;;16.52;2.88;;;;;;;-143.48;89.51;118439.88;5092469;28;20425;-37
2023/01/31 08:25:42;;;;;;;17.13;2.70;;;;;;;-143.48;89.31;118439.88;5092768;28;20091;-35
2023/01/31 08:28:08;;;;;;;18.33;2.83;;;;;;;-143.48;89.36;118439.88;5094527;28;20154;-38
2023/01/31 08:30:33;;;;;;;14.85;3.33;;;;;;;-143.48;89.17;118439.88;5076047;28;20054;-34
2023/01/31 08:32:59;;;;;;;23.75;3.30;;;;;;;-143.48;89.59;118439.88;5094254;28;20178;-35
2023/01/31 08:35:25;;;;;;;17.38;2.70;;;;;;;-143.48;89.22;118439.88;5094217;28;20024;-35
2023/01/31 08:37:51;;;;;;;15.93;2.63;;;;;;;-143.48;88.96;118439.88;5094280;28;20164;-36
2023/01/31 08:40:17;;;;;;;19.15;2.90;;;;;;;-143.48;89.11;118439.88;5093702;28;20047;-34
2023/01/31 08:42:42;;;;;;;18.63;2.88;;;;;;;-143.48;88.57;118439.88;5091803;28;20020;-35
2023/01/31 08:45:08;;;;;;;16.17;3.15;;;;;;;-143.48;88.47;118439.88;5092007;28;20155;-34
2023/01/31 08:47:33;;;;;;;24.30;2.78;;;;;;;-143.48;88.12;118439.88;5091966;28;20036;-34
2023/01/31 08:49:59;;;;;;;25.02;2.78;;;;;;;-143.48;88.24;118439.88;5091894;28;20028;-35
2023/01/31 08:52:24;;;;;;;17.23;2.97;;;;;;;-143.48;88.36;118439.88;5091826;28;20490;-34
2023/01/31 08:54:49;;;;;;;20.40;4.30;;;;;;;-143.48;88.39;118439.88;5091811;28;20114;-35
2023/01/31 08:57:15;;;;;;;18.02;3.08;;;;;;;-143.48;88.33;118439.88;5093461;28;20020;-37
2023/01/31 08:59:40;;;;;;;13.50;2.95;;;;;;;-143.48;88.54;118439.88;5092723;28;20024;-35
2023/01/31 09:02:06;;;;;;;17.75;2.50;;;;;;;-143.48;89.26;118439.88;5094181;28;20031;-35
2023/01/31 09:04:31;;;;;;;18.27;2.70;;;;;;;-143.48;88.55;118439.88;5093721;28;20023;-35
2023/01/31 09:06:57;;;;;;;12.70;2.60;;;;;;;-143.48;88.15;118439.88;5093806;28;20054;-34
2023/01/31 09:09:24;;;;;;;19.67;3.60;;;;;;;-143.48;88.40;118439.88;5093917;28;20035;-34
2023/01/31 09:11:50;;;;;;;13.80;2.38;;;;;;;-143.48;88.29;118439.88;5093637;28;20331;-36
2023/01/31 09:14:15;;;;;;;16.95;2.95;;;;;;;-143.48;87.80;118439.88;5093423;28;20028;-35
2023/01/31 09:16:41;;;;;;;17.80;2.67;;;;;;;-143.48;86.79;118439.88;5092900;28;20375;-34
2023/01/31 09:19:06;;;;;;;13.48;2.40;;;;;;;-143.48;87.26;118439.88;5093720;28;20024;-34
2023/01/31 09:21:31;;;;;;;19.13;2.63;;;;;;;-143.48;86.66;118439.88;5093597;28;20032;-34
2023/01/31 09:24:01;;;;;;;14.50;2.17;;;;;;;-143.48;85.92;118439.88;5093832;28;20103;-35
2023/01/31 09:26:26;;;;;;;9.57;2.33;;;;;;;-143.48;85.88;118439.88;5093367;28;20094;-35
2023/01/31 09:28:52;;;;;;;17.60;2.60;;;;;;;-143.48;85.54;118439.88;5093541;28;20038;-34
2023/01/31 09:31:19;;;;;;;12.85;2.30;;;;;;;-143.48;86.79;118439.88;5093600;28;20447;-35
2023/01/31 09:33:45;;;;;;;18.27;2.75;;;;;;;-143.48;87.54;118439.88;5093298;28;20024;-34
2023/01/31 09:36:14;;;;;;;20.65;3.50;;;;;;;-143.48;87.68;118439.88;5093748;28;20078;-35
2023/01/31 09:38:40;;;;;;;11.73;2.75;;;;;;;-143.48;87.36;118439.88;5093714;28;20027;-34
2023/01/31 09:41:37;;;;;;;13.80;2.70;;;;;;;-143.48;87.35;118439.88;5093368;28;20418;-37
2023/01/31 09:44:12;;;;;;;20.10;3.15;;;;;;;-143.48;86.77;118439.88;5093049;28;20115;-34
2023/01/31 09:46:43;;;;;;;16.55;2.63;;;;;;;-143.48;87.03;118439.88;5092788;28;20162;-35
2023/01/31 09:49:18;;;;;;;19.80;2.83;;;;;;;-143.48;87.20;118439.88;5092949;28;20032;-34
2023/01/31 09:51:47;;;;;;;16.77;2.53;;;;;;;-143.48;87.36;118439.88;5093367;28;20103;-34
2023/01/31 09:54:31;;;;;;;21.70;3.28;;;;;;;-143.48;85.73;118439.88;5093409;28;20028;-36
2023/01/31 09:57:04;;;;;;;15.80;3.00;;;;;;;-143.48;87.03;118439.88;5093471;28;20031;-34
2023/01/31 09:59:46;;;;;;;12.50;2.88;;;;;;;-143.48;86.04;118439.88;5093313;28;20481;-35
2023/01/31 10:02:38;;;;;;;17.95;2.85;;;;;;;-143.48;87.10;118439.88;5093114;28;20105;-35
2023/01/31 10:05:22;;;;;;;16.88;2.50;;;;;;;-143.48;87.36;118439.88;5093444;28;20086;-34
2023/01/31 10:07:53;;;;;;;17.70;2.80;;;;;;;-143.48;88.40;118439.88;5093048;28;20035;-34
2023/01/31 10:10:40;;;;;;;16.58;2.95;;;;;;;-143.48;87.99;118439.88;5093542;28;20047;-35
2023/01/31 10:13:16;;;;;;;20.67;2.95;;;;;;;-143.48;87.57;118439.88;5093396;28;20091;-34
2023/01/31 10:16:21;;;;;;;11.48;2.55;;;;;;;-143.48;87.65;118439.88;5093048;28;20041;-35
2023/01/31 10:18:57;;;;;;;23.05;3.28;;;;;;;-143.48;87.63;118439.88;5064583;28;20043;-35
2023/01/31 10:21:27;;;;;;;21.20;2.63;;;;;;;-143.48;87.26;118439.88;5093269;28;20032;-35
2023/01/31 10:23:58;;;;;;;26.52;3.80;;;;;;;-143.48;87.80;118439.88;5093248;28;20020;-36
2023/01/31 10:26:26;;;;;;;17.48;3.33;;;;;;;-143.48;88.45;118439.88;5093020;28;20055;-35
2023/01/31 10:29:03;;;;;;;16.88;3.28;;;;;;;-143.48;88.57;118439.88;5096816;28;20423;-34
2023/01/31 10:31:42;;;;;;;20.50;3.60;;;;;;;-143.48;88.27;118439.88;5096236;28;20111;-35
2023/01/31 10:34:27;;;;;;;21.70;3.83;;;;;;;-143.48;88.48;118439.88;5096905;28;20564;-35
2023/01/31 10:37:01;;;;;;;26.75;3.67;;;;;;;-143.48;88.25;118439.88;5096482;28;20035;-35
2023/01/31 10:39:36;;;;;;;16.88;3.40;;;;;;;-143.48;88.27;118439.88;5096809;28;20024;-36
2023/01/31 10:42:26;;;;;;;17.02;3.17;;;;;;;-143.48;88.77;118439.88;5096494;28;20024;-35
2023/01/31 10:45:00;;;;;;;27.38;3.60;;;;;;;-143.48;90.32;118439.88;5095808;28;20036;-35
2023/01/31 10:47:38;;;;;;;21.40;3.83;;;;;;;-143.48;90.79;118439.88;5096443;28;20027;-35
2023/01/31 10:50:29;;;;;;;19.70;4.13;;;;;;;-143.48;91.13;118439.88;5096376;28;20024;-35
2023/01/31 10:53:33;;;;;;;31.30;4.00;;;;;;;-143.48;91.50;118439.88;5096936;28;20024;-35
2023/01/31 10:56:02;;;;;;;22.48;3.38;;;;;;;-143.48;92.14;118439.88;5096458;28;20103;-35
2023/01/31 10:58:27;;;;;;;25.80;3.65;;;;;;;-143.48;93.43;118439.88;5096243;28;20047;-35
2023/01/31 11:00:53;;;;;;;22.23;3.53;;;;;;;-143.48;93.60;118439.88;5096482;28;20051;-38
2023/01/31 11:03:19;;;;;;;17.63;3.45;;;;;;;-143.48;93.59;118439.88;5096095;28;20020;-36
2023/01/31 11:05:56;;;;;;;26.85;3.83;;;;;;;-143.48;94.63;118439.88;5096094;28;20095;-37
2023/01/31 11:08:45;;;;;;;22.80;3.85;;;;;;;-143.48;95.10;118439.88;5077742;28;20016;-35
2023/01/31 11:11:16;;;;;;;23.70;3.53;;;;;;;-143.48;95.52;118439.88;5095960;28;20028;-35
2023/01/31 11:13:55;;;;;;;45.20;6.95;;;;;;;-143.48;95.56;118439.88;5096108;28;20030;-35
2023/01/31 11:16:21;;;;;;;19.55;3.38;;;;;;;-143.48;95.24;118439.88;5095426;28;20420;-35
2023/01/31 11:18:50;;;;;;;23.15;3.60;;;;;;;-143.48;95.10;118439.88;5095477;28;20024;-34
2023/01/31 11:21:25;;;;;;;21.73;3.30;;;;;;;-143.48;94.48;118439.88;5096097;28;20071;-35
2023/01/31 11:23:51;;;;;;;19.70;4.28;;;;;;;-143.48;94.33;118439.88;5095740;28;20030;-38
2023/01/31 11:26:25;;;;;;;21.85;3.60;;;;;;;-143.48;94.19;118439.88;5096065;28;20024;-37